Time;durP1;ratioP1;P1;durP2;ratioP2;P2;SDS_P1;SDS_P2;PMS_P1;PMS_P2;Temp;Humidity;BMP_temperature;BMP_pressure;BME280_temperature;BME280_humidity;BME280_pressure;Samples;Min_cycle;Max_cycle;Signal;HPM_P1;HPM_P2
2023/10/14 00:01:36;;;;;;;7.63;1.15;;;31.00;26.60;;;;;;5013860;28;20033;-64
2023/10/14 00:04:10;;;;;;;6.13;1.25;;;31.00;26.60;;;;;;5008244;28;20105;-60
2023/10/14 00:06:39;;;;;;;6.93;1.10;;;30.90;26.40;;;;;;5017934;28;20057;-64
2023/10/14 00:09:15;;;;;;;6.07;1.10;;;30.90;26.00;;;;;;5007552;28;20108;-61
2023/10/14 00:11:52;;;;;;;6.60;1.08;;;30.80;26.20;;;;;;5008137;28;20025;-61
2023/10/14 00:14:18;;;;;;;12.43;1.20;;;30.80;27.20;;;;;;5008231;28;20059;-61
2023/10/14 00:16:52;;;;;;;5.93;1.35;;;30.80;26.20;;;;;;5009513;28;20095;-58
2023/10/14 00:19:19;;;;;;;13.65;3.78;;;30.70;26.60;;;;;;5008542;28;20018;-60
2023/10/14 00:21:48;;;;;;;26.77;18.23;;;30.60;26.90;;;;;;5016036;28;20493;-60
2023/10/14 00:24:28;;;;;;;24.77;22.13;;;30.60;27.40;;;;;;5017069;28;20040;-60
2023/10/14 00:26:56;;;;;;;10.05;3.13;;;30.60;27.20;;;;;;5008415;28;20029;-60
2023/10/14 00:29:22;;;;;;;6.13;1.40;;;30.50;27.10;;;;;;5007598;28;20034;-62
2023/10/14 00:31:50;;;;;;;10.80;1.33;;;30.50;27.90;;;;;;5027196;28;20012;-61
2023/10/14 00:34:22;;;;;;;7.75;1.05;;;30.50;29.30;;;;;;5008017;28;20101;-60
2023/10/14 00:36:49;;;;;;;8.23;1.52;;;30.40;28.80;;;;;;5007053;28;20022;-60
2023/10/14 00:39:16;;;;;;;3.17;1.00;;;30.30;27.70;;;;;;5007345;28;20056;-58
2023/10/14 00:41:46;;;;;;;10.15;1.25;;;30.20;27.10;;;;;;5008635;28;20042;-58
2023/10/14 00:44:12;;;;;;;8.60;1.30;;;30.10;27.10;;;;;;5007120;28;20091;-59
2023/10/14 00:46:43;;;;;;;5.57;1.10;;;30.00;27.30;;;;;;5007971;28;20010;-59
2023/10/14 00:49:13;;;;;;;11.85;1.55;;;30.00;27.70;;;;;;5007608;28;20068;-58
2023/10/14 00:51:45;;;;;;;5.85;1.30;;;29.90;26.70;;;;;;5012707;28;20036;-59
2023/10/14 00:54:26;;;;;;;7.25;1.65;;;29.90;26.80;;;;;;5006574;28;20018;-57
2023/10/14 00:57:00;;;;;;;7.13;1.50;;;29.80;27.60;;;;;;5018085;28;20548;-58
2023/10/14 00:59:28;;;;;;;13.10;1.35;;;29.70;28.00;;;;;;5016085;28;20064;-57
2023/10/14 01:01:58;;;;;;;9.93;1.45;;;29.60;28.20;;;;;;5013491;28;20660;-61
2023/10/14 01:04:34;;;;;;;11.30;1.40;;;29.50;28.10;;;;;;5010333;28;20378;-59
2023/10/14 01:14:59;;;;;;;9.60;1.73;;;29.10;29.00;;;;;;5012389;28;20068;-59
2023/10/14 01:17:29;;;;;;;13.77;1.90;;;29.00;28.60;;;;;;5012344;28;20050;-59
2023/10/14 01:20:24;;;;;;;9.23;1.90;;;28.90;29.10;;;;;;5026105;28;20425;-56
2023/10/14 01:23:06;;;;;;;20.40;2.95;;;28.70;29.40;;;;;;5012522;28;20552;-57
2023/10/14 01:25:33;;;;;;;23.92;3.63;;;28.70;29.60;;;;;;5011160;28;20036;-60
2023/10/14 01:28:08;;;;;;;21.42;3.63;;;28.50;30.00;;;;;;5009981;28;20041;-60
2023/10/14 01:30:39;;;;;;;21.38;3.65;;;28.40;30.70;;;;;;5027581;28;20029;-60
2023/10/14 01:33:16;;;;;;;26.20;4.10;;;28.30;31.00;;;;;;5009378;28;20478;-59
2023/10/14 01:35:45;;;;;;;28.70;4.03;;;28.20;32.00;;;;;;5011132;28;20060;-58
2023/10/14 01:38:12;;;;;;;25.95;4.50;;;28.10;31.60;;;;;;5012844;28;20105;-59
2023/10/14 01:40:40;;;;;;;23.23;4.03;;;28.00;32.20;;;;;;5016802;28;20010;-57
2023/10/14 01:43:08;;;;;;;23.15;4.32;;;27.90;32.20;;;;;;5013582;28;20480;-57
2023/10/14 01:45:48;;;;;;;22.98;5.15;;;27.80;32.10;;;;;;5009952;28;20026;-58
2023/10/14 01:48:20;;;;;;;26.52;5.43;;;27.70;32.80;;;;;;5023415;28;20050;-59
2023/10/14 01:50:52;;;;;;;27.65;6.22;;;27.60;32.90;;;;;;5009538;28;20112;-60
2023/10/14 01:53:21;;;;;;;32.38;5.70;;;27.50;33.20;;;;;;5009626;28;20022;-60
2023/10/14 01:55:47;;;;;;;25.90;4.53;;;27.50;33.20;;;;;;5009058;28;20471;-58
2023/10/14 02:01:15;;;;;;;28.88;5.35;;;27.30;33.90;;;;;;4986979;28;20096;-60
2023/10/14 02:03:51;;;;;;;36.30;5.10;;;27.20;33.10;;;;;;4997008;28;20022;-61
2023/10/14 02:06:26;;;;;;;23.65;4.78;;;27.10;34.30;;;;;;4990989;28;20553;-58
2023/10/14 02:08:54;;;;;;;28.83;5.45;;;27.10;33.60;;;;;;4991005;28;20023;-58
2023/10/14 02:11:21;;;;;;;39.75;5.85;;;27.00;33.40;;;;;;4995907;28;20030;-59
2023/10/14 02:13:52;;;;;;;33.65;5.57;;;27.00;33.60;;;;;;4996408;28;20378;-56
2023/10/14 02:16:24;;;;;;;48.25;6.00;;;26.90;34.10;;;;;;4999009;28;20129;-56
2023/10/14 02:19:03;;;;;;;35.92;5.28;;;26.90;34.70;;;;;;4989762;28;21172;-57
2023/10/14 02:21:34;;;;;;;36.17;5.38;;;26.80;34.70;;;;;;4987063;28;20602;-56
2023/10/14 02:24:04;;;;;;;46.90;5.60;;;26.80;34.50;;;;;;4987793;28;20041;-54
2023/10/14 02:26:32;;;;;;;44.83;5.50;;;26.80;34.10;;;;;;4993461;28;20125;-59
2023/10/14 02:28:59;;;;;;;32.35;6.22;;;26.70;34.30;;;;;;4999544;28;20018;-59
2023/10/14 02:31:29;;;;;;;47.78;5.72;;;26.70;34.70;;;;;;5004658;28;20033;-56
2023/10/14 02:33:59;;;;;;;44.40;6.00;;;26.60;34.90;;;;;;4993739;28;20018;-59
2023/10/14 02:36:29;;;;;;;35.75;6.68;;;26.60;35.00;;;;;;4999421;28;20026;-58
2023/10/14 02:39:27;;;;;;;45.22;6.43;;;26.50;37.10;;;;;;5014559;28;20409;-57
2023/10/14 02:42:15;;;;;;;37.80;6.57;;;26.50;36.50;;;;;;5020352;28;20018;-57
2023/10/14 02:44:44;;;;;;;38.00;6.65;;;26.40;35.80;;;;;;5018805;28;20044;-57
2023/10/14 02:47:12;;;;;;;39.58;6.57;;;26.40;35.30;;;;;;5024012;28;20072;-57
2023/10/14 02:49:53;;;;;;;39.13;7.28;;;26.30;36.20;;;;;;5023030;28;20080;-59
2023/10/14 02:52:29;;;;;;;38.80;8.75;;;26.20;35.90;;;;;;5008637;28;20107;-59
2023/10/14 02:57:45;;;;;;;47.40;8.20;;;26.10;36.30;;;;;;5014488;28;20496;-56
2023/10/14 03:00:16;;;;;;;60.15;9.40;;;26.10;36.20;;;;;;5009114;28;20033;-58
2023/10/14 03:02:54;;;;;;;57.13;9.65;;;26.10;37.60;;;;;;5026263;28;20022;-59
2023/10/14 03:05:37;;;;;;;43.63;9.25;;;26.10;36.10;;;;;;5008972;28;20113;-59
2023/10/14 03:08:12;;;;;;;44.25;9.20;;;26.00;36.70;;;;;;5009059;28;20028;-59
2023/10/14 03:10:45;;;;;;;35.55;8.52;;;25.90;36.30;;;;;;5012534;28;20056;-59
2023/10/14 03:13:13;;;;;;;54.75;8.65;;;25.90;36.60;;;;;;5022859;28;20079;-58
2023/10/14 03:15:44;;;;;;;44.78;8.73;;;25.90;36.50;;;;;;5017052;28;20010;-59
2023/10/14 03:18:18;;;;;;;48.70;9.10;;;25.80;36.60;;;;;;5008238;28;20051;-57
2023/10/14 03:21:09;;;;;;;46.55;8.68;;;25.80;37.20;;;;;;5008408;28;20022;-58
2023/10/14 03:23:36;;;;;;;47.90;9.07;;;25.80;37.90;;;;;;5008097;28;21339;-57
2023/10/14 03:26:14;;;;;;;49.20;9.25;;;25.70;37.90;;;;;;5007667;28;20105;-59
2023/10/14 03:28:50;;;;;;;49.50;8.82;;;25.80;38.30;;;;;;5018308;28;20021;-57
2023/10/14 03:31:19;;;;;;;40.95;9.45;;;25.70;37.00;;;;;;5008492;28;20034;-57
2023/10/14 03:33:46;;;;;;;50.03;10.15;;;25.60;37.10;;;;;;5020651;28;20075;-60
2023/10/14 03:36:17;;;;;;;39.78;9.38;;;25.60;37.30;;;;;;5008061;28;20108;-59
2023/10/14 03:38:55;;;;;;;45.28;9.68;;;25.60;37.60;;;;;;5012266;28;20038;-59
2023/10/14 03:41:23;;;;;;;50.88;10.07;;;25.60;37.60;;;;;;5008724;28;20517;-58
2023/10/14 03:46:29;;;;;;;47.97;12.27;;;25.40;37.90;;;;;;5010650;28;20379;-64
2023/10/14 03:48:56;;;;;;;43.78;10.98;;;25.40;37.00;;;;;;5008918;28;20467;-59
2023/10/14 03:51:24;;;;;;;44.30;12.70;;;25.40;37.90;;;;;;5007855;28;20397;-62
2023/10/14 03:54:01;;;;;;;40.13;11.93;;;25.30;37.00;;;;;;5010659;28;20140;-59
2023/10/14 03:56:29;;;;;;;54.90;13.48;;;25.30;38.00;;;;;;5026322;28;20116;-59
2023/10/14 03:58:57;;;;;;;57.67;14.27;;;25.30;38.30;;;;;;5011631;28;20025;-59
2023/10/14 04:01:54;;;;;;;65.90;16.75;;;25.30;38.30;;;;;;5008616;28;20014;-58
2023/10/14 04:04:18;;;;;;;46.55;15.30;;;25.20;37.60;;;;;;5007492;28;20529;-60
2023/10/14 04:06:55;;;;;;;45.58;15.55;;;25.10;37.80;;;;;;5008267;28;20014;-60
2023/10/14 04:09:24;;;;;;;56.03;16.45;;;25.10;39.10;;;;;;5006822;28;20041;-59
2023/10/14 04:11:58;;;;;;;65.32;18.25;;;25.00;38.70;;;;;;5007764;28;20022;-59
2023/10/14 04:14:27;;;;;;;80.15;17.85;;;25.00;38.70;;;;;;5009261;28;20026;-60
2023/10/14 04:19:46;;;;;;;59.47;18.83;;;25.00;40.10;;;;;;5020228;28;20394;-59
2023/10/14 04:22:38;;;;;;;55.55;18.17;;;24.90;39.60;;;;;;5009267;28;20100;-60
2023/10/14 04:27:46;;;;;;;69.40;23.25;;;24.80;40.00;;;;;;5008752;28;20088;-59
2023/10/14 04:30:20;;;;;;;78.50;27.13;;;24.80;40.00;;;;;;5021795;28;20093;-58
2023/10/14 04:32:48;;;;;;;83.07;27.90;;;24.70;40.00;;;;;;5006967;28;20018;-56
2023/10/14 04:35:22;;;;;;;83.75;30.02;;;24.70;40.10;;;;;;5008775;28;20049;-57
2023/10/14 04:37:53;;;;;;;77.90;31.15;;;24.60;39.70;;;;;;5011511;28;20054;-57
2023/10/14 04:43:18;;;;;;;94.20;32.50;;;24.50;41.10;;;;;;5024735;28;20045;-59
2023/10/14 04:46:00;;;;;;;99.57;33.40;;;24.50;40.90;;;;;;5015670;28;20721;-61
2023/10/14 04:48:28;;;;;;;91.18;33.97;;;24.50;40.90;;;;;;5012387;28;20096;-57
2023/10/14 04:50:57;;;;;;;91.40;33.75;;;24.40;41.10;;;;;;5010941;28;20080;-59
2023/10/14 04:53:28;;;;;;;96.93;34.78;;;24.40;42.30;;;;;;5011549;28;20430;-59
2023/10/14 04:56:02;;;;;;;99.38;33.08;;;24.40;42.90;;;;;;5011858;28;20029;-54
2023/10/14 04:58:34;;;;;;;92.95;34.85;;;24.30;42.30;;;;;;5012239;28;20041;-58
2023/10/14 05:01:01;;;;;;;87.82;35.13;;;24.30;42.20;;;;;;5021975;28;20021;-61
2023/10/14 05:03:29;;;;;;;99.25;33.17;;;24.20;42.40;;;;;;5010672;28;20029;-59
2023/10/14 05:05:56;;;;;;;87.95;32.78;;;24.10;42.10;;;;;;5010751;28;20017;-58
2023/10/14 05:08:44;;;;;;;82.45;33.90;;;24.10;42.10;;;;;;5010810;28;20021;-59
2023/10/14 05:11:25;;;;;;;94.63;34.63;;;24.10;42.10;;;;;;5011392;28;20041;-58
2023/10/14 05:14:08;;;;;;;88.30;32.45;;;24.00;42.40;;;;;;5011428;28;20061;-56
2023/10/14 05:16:57;;;;;;;97.60;33.25;;;24.00;42.80;;;;;;5011286;28;20087;-58
2023/10/14 05:19:26;;;;;;;92.13;35.92;;;24.00;42.30;;;;;;5011611;28;20086;-55
2023/10/14 05:21:57;;;;;;;86.60;36.08;;;24.00;42.80;;;;;;5014367;28;20018;-58
2023/10/14 05:24:28;;;;;;;99.55;37.42;;;23.90;42.60;;;;;;5012498;28;20045;-59
2023/10/14 05:27:01;;;;;;;95.18;36.33;;;23.90;42.50;;;;;;5014421;28;20497;-54
2023/10/14 05:29:31;;;;;;;120.05;38.75;;;23.90;43.50;;;;;;5010674;28;20042;-60
2023/10/14 05:32:10;;;;;;;90.82;34.35;;;23.80;43.40;;;;;;5011151;28;20025;-54
2023/10/14 05:34:43;;;;;;;91.78;36.63;;;23.80;43.30;;;;;;5009824;28;20018;-58
2023/10/14 05:37:13;;;;;;;98.63;35.03;;;23.70;43.80;;;;;;5010169;28;20558;-60
2023/10/14 05:39:43;;;;;;;104.60;34.45;;;23.70;44.10;;;;;;5010633;28;20064;-57
2023/10/14 05:42:17;;;;;;;95.57;33.97;;;23.70;43.70;;;;;;5011179;28;20029;-58
2023/10/14 05:44:57;;;;;;;93.53;32.55;;;23.60;43.50;;;;;;5009900;28;20109;-58
2023/10/14 05:47:27;;;;;;;87.55;31.27;;;23.60;43.70;;;;;;5011826;28;20478;-52
2023/10/14 05:49:54;;;;;;;102.90;32.13;;;23.60;43.40;;;;;;5020432;28;20079;-56
2023/10/14 05:52:24;;;;;;;100.65;30.48;;;23.50;43.40;;;;;;5016704;28;20017;-57
2023/10/14 05:54:51;;;;;;;79.70;30.48;;;23.50;43.70;;;;;;5019571;28;20364;-58
2023/10/14 05:57:18;;;;;;;85.45;29.30;;;23.40;43.90;;;;;;5019245;28;20022;-57
2023/10/14 05:59:46;;;;;;;77.95;28.60;;;23.40;43.70;;;;;;5016320;28;20025;-57
2023/10/14 06:02:15;;;;;;;94.55;28.83;;;23.40;43.50;;;;;;5015354;28;20402;-57
2023/10/14 06:04:41;;;;;;;98.85;29.42;;;23.30;43.40;;;;;;5023467;28;20052;-58
2023/10/14 06:07:09;;;;;;;88.15;31.23;;;23.30;43.70;;;;;;5019271;28;20413;-59
2023/10/14 06:09:37;;;;;;;91.47;31.10;;;23.30;44.10;;;;;;5019684;28;20754;-61
2023/10/14 06:12:12;;;;;;;89.13;30.92;;;23.30;44.90;;;;;;5017652;28;20470;-59
2023/10/14 06:14:40;;;;;;;102.68;32.25;;;23.20;45.90;;;;;;5019882;28;20018;-60
2023/10/14 06:17:07;;;;;;;106.30;31.73;;;23.20;46.20;;;;;;5017139;28;20075;-60
2023/10/14 06:19:36;;;;;;;180.25;34.90;;;23.10;45.80;;;;;;5017108;28;20030;-58
2023/10/14 06:22:03;;;;;;;180.13;35.30;;;23.00;46.00;;;;;;5017697;28;20112;-58
2023/10/14 06:24:30;;;;;;;99.90;28.70;;;23.00;45.40;;;;;;5018829;28;20112;-59
2023/10/14 06:27:09;;;;;;;80.53;27.08;;;22.90;46.00;;;;;;5018205;28;20025;-59
2023/10/14 06:29:36;;;;;;;119.50;44.17;;;22.90;44.60;;;;;;5016787;28;20111;-56
2023/10/14 06:32:13;;;;;;;103.47;44.45;;;22.90;44.50;;;;;;5019693;28;20036;-60
2023/10/14 06:34:39;;;;;;;113.85;46.08;;;22.90;45.50;;;;;;5020885;28;20100;-55
2023/10/14 06:37:07;;;;;;;76.90;27.27;;;22.90;45.70;;;;;;5011498;28;20029;-58
2023/10/14 06:39:41;;;;;;;70.55;26.15;;;22.80;45.50;;;;;;5009457;28;20112;-55
2023/10/14 06:42:07;;;;;;;56.63;15.80;;;22.80;44.80;;;;;;5011189;28;20102;-60
2023/10/14 06:44:34;;;;;;;62.53;15.40;;;22.80;42.60;;;;;;5008501;28;20045;-57
2023/10/14 06:47:00;;;;;;;58.03;14.63;;;22.80;42.20;;;;;;5015832;28;20025;-57
2023/10/14 06:49:36;;;;;;;54.00;13.40;;;22.80;41.90;;;;;;5018335;28;20033;-59
2023/10/14 06:52:04;;;;;;;67.23;14.07;;;22.80;41.80;;;;;;5017340;28;20022;-60
2023/10/14 06:54:36;;;;;;;45.00;13.57;;;22.80;42.40;;;;;;5042667;28;20469;-60
2023/10/14 06:57:07;;;;;;;70.05;15.20;;;22.80;43.10;;;;;;5017021;28;20535;-58
2023/10/14 06:59:37;;;;;;;57.58;15.50;;;22.70;42.60;;;;;;5015470;28;20014;-57
2023/10/14 07:02:04;;;;;;;71.97;16.17;;;22.70;43.40;;;;;;5016748;28;20034;-57
2023/10/14 07:04:37;;;;;;;52.30;15.65;;;22.60;43.70;;;;;;5018407;28;20079;-57
2023/10/14 07:07:08;;;;;;;62.45;14.95;;;22.60;43.10;;;;;;5017312;28;20018;-58
2023/10/14 07:09:37;;;;;;;70.00;16.42;;;22.60;43.10;;;;;;5017782;28;20471;-60
2023/10/14 07:12:25;;;;;;;85.13;16.48;;;22.60;43.20;;;;;;5018232;28;20053;-60
2023/10/14 07:14:50;;;;;;;99.50;18.23;;;22.60;43.70;;;;;;5017747;28;20018;-59
2023/10/14 07:17:22;;;;;;;74.63;15.93;;;22.60;44.50;;;;;;5018290;28;20497;-59
2023/10/14 07:19:49;;;;;;;75.10;16.88;;;22.50;44.70;;;;;;5018051;28;20018;-58
2023/10/14 07:22:20;;;;;;;58.90;15.73;;;22.40;43.70;;;;;;5016316;28;20132;-57
2023/10/14 07:24:52;;;;;;;70.78;16.23;;;22.40;44.00;;;;;;5017469;28;20112;-57
2023/10/14 07:27:20;;;;;;;64.25;14.48;;;22.40;44.20;;;;;;5018923;28;20025;-57
2023/10/14 07:29:46;;;;;;;68.88;15.75;;;22.40;43.40;;;;;;5016281;28;20029;-59
2023/10/14 07:32:19;;;;;;;62.35;15.35;;;22.30;43.80;;;;;;5017046;28;20014;-58
2023/10/14 07:34:45;;;;;;;51.25;13.88;;;22.30;44.20;;;;;;5015655;28;20026;-58
2023/10/14 07:37:13;;;;;;;60.90;14.23;;;22.20;44.20;;;;;;5016434;28;20010;-57
2023/10/14 07:39:40;;;;;;;57.35;14.55;;;22.20;44.60;;;;;;5017552;28;20481;-55
2023/10/14 07:42:09;;;;;;;66.72;15.15;;;22.20;46.00;;;;;;5016540;28;20022;-59
2023/10/14 07:44:36;;;;;;;57.50;13.98;;;22.10;45.30;;;;;;5017464;28;20021;-57
2023/10/14 07:47:05;;;;;;;53.55;12.98;;;22.10;46.30;;;;;;5018026;28;20029;-59
2023/10/14 07:49:35;;;;;;;68.20;14.23;;;22.00;46.20;;;;;;5017132;28;20033;-59
2023/10/14 07:52:05;;;;;;;53.67;13.68;;;21.90;45.60;;;;;;5018527;28;20010;-60
2023/10/14 07:54:32;;;;;;;49.10;12.30;;;21.90;46.30;;;;;;5018650;28;20452;-57
2023/10/14 07:56:58;;;;;;;59.03;12.90;;;21.90;46.90;;;;;;5016192;28;20018;-62
2023/10/14 07:59:25;;;;;;;47.40;13.65;;;21.90;46.80;;;;;;5018797;28;20022;-61
2023/10/14 08:01:52;;;;;;;52.33;13.43;;;21.90;46.20;;;;;;5017273;28;20594;-57
2023/10/14 08:04:20;;;;;;;68.22;16.73;;;21.80;46.30;;;;;;5016785;28;20516;-58
2023/10/14 08:06:47;;;;;;;60.78;15.80;;;21.90;46.30;;;;;;5019246;28;20025;-60
2023/10/14 08:09:27;;;;;;;63.42;19.58;;;21.90;46.60;;;;;;5015562;28;20029;-60
2023/10/14 08:11:54;;;;;;;56.53;19.73;;;21.90;46.50;;;;;;5021530;28;20377;-57
2023/10/14 08:14:20;;;;;;;57.17;19.63;;;21.80;46.20;;;;;;5021561;28;20351;-57
2023/10/14 08:16:47;;;;;;;76.82;20.50;;;21.80;46.10;;;;;;5019299;28;20029;-59
2023/10/14 08:19:14;;;;;;;75.00;22.17;;;21.80;45.90;;;;;;5020797;28;20098;-57
2023/10/14 08:21:40;;;;;;;80.72;21.90;;;21.90;46.20;;;;;;5020635;28;20053;-58
2023/10/14 08:24:07;;;;;;;65.43;21.58;;;21.80;46.70;;;;;;5019844;28;20014;-59
2023/10/14 08:26:34;;;;;;;79.22;21.77;;;21.80;46.40;;;;;;5020889;28;20105;-59
2023/10/14 08:29:01;;;;;;;68.43;20.88;;;21.80;46.60;;;;;;5021063;28;20013;-55
2023/10/14 08:31:32;;;;;;;59.85;18.67;;;21.70;47.40;;;;;;5020870;28;20030;-56
2023/10/14 08:34:01;;;;;;;67.68;18.48;;;21.60;46.50;;;;;;5021190;28;20102;-59
2023/10/14 08:36:27;;;;;;;80.35;18.23;;;21.50;46.70;;;;;;5019367;28;20014;-58
2023/10/14 08:38:54;;;;;;;67.30;16.88;;;21.50;45.90;;;;;;5019584;28;20010;-54
2023/10/14 08:41:22;;;;;;;61.33;15.13;;;21.50;45.90;;;;;;5021277;28;20113;-57
2023/10/14 08:43:49;;;;;;;64.40;14.75;;;21.50;45.40;;;;;;5020950;28;20034;-58
2023/10/14 08:46:18;;;;;;;65.20;14.23;;;21.60;45.80;;;;;;5019927;28;20029;-58
2023/10/14 08:48:50;;;;;;;62.83;13.30;;;21.60;45.80;;;;;;5022160;28;20024;-60
2023/10/14 08:51:18;;;;;;;55.28;11.50;;;21.60;46.00;;;;;;5018761;28;20433;-57
2023/10/14 08:53:53;;;;;;;57.58;10.88;;;21.60;45.10;;;;;;5022243;28;20009;-59
2023/10/14 08:56:22;;;;;;;43.65;9.48;;;21.50;44.20;;;;;;5020697;28;20025;-57
2023/10/14 08:58:49;;;;;;;38.65;8.85;;;21.50;43.60;;;;;;5019924;28;20374;-57
2023/10/14 09:01:18;;;;;;;43.80;7.75;;;21.50;44.40;;;;;;5020082;28;20042;-58
2023/10/14 09:03:49;;;;;;;34.53;7.35;;;21.50;43.90;;;;;;5018801;28;20542;-57
2023/10/14 09:06:17;;;;;;;25.45;5.75;;;21.40;43.10;;;;;;5019962;28;20025;-57
2023/10/14 09:08:48;;;;;;;30.38;6.30;;;21.40;42.40;;;;;;5019978;28;20100;-58
2023/10/14 09:11:35;;;;;;;24.95;6.35;;;21.40;42.70;;;;;;5020061;28;20025;-58
2023/10/14 09:14:04;;;;;;;28.00;5.65;;;21.40;42.40;;;;;;5021480;28;20113;-57
2023/10/14 09:16:36;;;;;;;22.80;5.93;;;21.40;42.20;;;;;;5019590;28;20034;-56
2023/10/14 09:19:05;;;;;;;21.77;5.35;;;21.40;42.20;;;;;;5019047;28;20490;-60
2023/10/14 09:21:42;;;;;;;18.13;4.95;;;21.30;43.30;;;;;;5019428;28;20045;-59
2023/10/14 09:24:09;;;;;;;27.50;5.90;;;21.30;42.90;;;;;;5023118;28;20024;-57
2023/10/14 09:26:43;;;;;;;24.02;4.50;;;21.30;41.90;;;;;;5019904;28;21085;-60
2023/10/14 09:29:11;;;;;;;23.27;4.82;;;21.30;41.80;;;;;;5019306;28;20018;-60
2023/10/14 09:31:46;;;;;;;21.90;4.43;;;21.30;43.30;;;;;;5019361;28;20014;-57
2023/10/14 09:34:22;;;;;;;19.17;4.20;;;21.30;42.40;;;;;;5024938;28;20025;-57
2023/10/14 09:36:52;;;;;;;22.80;4.17;;;21.30;41.90;;;;;;5024643;28;20137;-59
2023/10/14 09:39:24;;;;;;;17.50;4.78;;;21.20;41.80;;;;;;5020036;28;20258;-60
2023/10/14 09:41:53;;;;;;;23.23;4.38;;;21.10;41.10;;;;;;5019089;28;20017;-60
2023/10/14 09:44:24;;;;;;;18.15;4.30;;;21.10;41.70;;;;;;5018654;28;20063;-57
2023/10/14 09:46:52;;;;;;;19.25;4.10;;;21.10;40.70;;;;;;5018244;28;20051;-59
2023/10/14 09:49:22;;;;;;;19.15;3.88;;;21.10;40.40;;;;;;5019002;28;20037;-55
2023/10/14 09:51:51;;;;;;;19.48;3.72;;;21.20;40.10;;;;;;5018740;28;20024;-56
2023/10/14 09:54:21;;;;;;;22.42;3.83;;;21.20;40.00;;;;;;5020107;28;20014;-59
2023/10/14 09:56:50;;;;;;;17.70;4.18;;;21.20;40.60;;;;;;5019000;28;20018;-53
2023/10/14 09:59:21;;;;;;;15.23;3.90;;;21.10;40.80;;;;;;5017718;28;20036;-61
2023/10/14 10:01:47;;;;;;;21.02;4.50;;;21.00;40.70;;;;;;5019023;28;20017;-61
2023/10/14 10:04:21;;;;;;;21.83;3.53;;;21.00;40.10;;;;;;5019332;28;20470;-62
2023/10/14 10:07:06;;;;;;;20.70;4.07;;;21.30;40.40;;;;;;5018404;28;20021;-60
2023/10/14 10:10:10;;;;;;;16.85;3.83;;;21.60;39.50;;;;;;5017802;28;20030;-61
2023/10/14 10:12:38;;;;;;;15.00;3.55;;;21.90;38.30;;;;;;5019732;28;20037;-59
2023/10/14 10:15:08;;;;;;;14.10;3.20;;;22.10;36.30;;;;;;5018896;28;20037;-61
2023/10/14 10:17:38;;;;;;;13.77;2.95;;;22.10;34.90;;;;;;5018776;28;20440;-61
2023/10/14 10:20:12;;;;;;;19.85;3.10;;;22.10;34.40;;;;;;5017698;28;20537;-60
2023/10/14 10:22:58;;;;;;;14.63;2.88;;;22.10;34.20;;;;;;5019079;28;20442;-61
2023/10/14 10:25:37;;;;;;;19.58;3.20;;;22.00;33.90;;;;;;5019547;28;20063;-60
2023/10/14 10:28:27;;;;;;;8.40;2.30;;;22.10;33.50;;;;;;5017322;28;20029;-60
2023/10/14 10:31:09;;;;;;;9.43;2.40;;;22.10;33.30;;;;;;5018667;28;20030;-60
2023/10/14 10:33:55;;;;;;;9.43;2.35;;;22.10;33.40;;;;;;5018651;28;21111;-60
2023/10/14 10:36:27;;;;;;;7.53;2.15;;;22.20;33.50;;;;;;5015678;28;20104;-60
2023/10/14 10:38:55;;;;;;;9.77;2.30;;;22.30;33.40;;;;;;5019695;28;20034;-62
2023/10/14 10:41:26;;;;;;;8.77;2.28;;;22.40;33.40;;;;;;5019166;28;20497;-61
2023/10/14 10:44:05;;;;;;;10.18;2.10;;;22.40;33.50;;;;;;5017992;28;20477;-60
2023/10/14 10:46:39;;;;;;;9.68;2.20;;;22.40;33.70;;;;;;5019108;28;20052;-60
2023/10/14 10:49:07;;;;;;;9.40;2.17;;;22.40;34.20;;;;;;5018655;28;20061;-61
2023/10/14 10:51:34;;;;;;;6.55;2.20;;;22.40;34.50;;;;;;5018216;28;20018;-61
2023/10/14 10:54:02;;;;;;;7.97;2.45;;;22.30;34.50;;;;;;5019128;28;20018;-60
2023/10/14 10:56:35;;;;;;;6.68;2.60;;;22.30;35.10;;;;;;5018104;28;20006;-60
2023/10/14 10:59:04;;;;;;;6.82;2.10;;;22.30;35.10;;;;;;5016064;28;20018;-61
2023/10/14 11:01:31;;;;;;;7.70;2.55;;;22.20;35.40;;;;;;5014036;28;20032;-58
2023/10/14 11:04:00;;;;;;;16.67;2.60;;;22.20;35.90;;;;;;5014937;28;20474;-61
2023/10/14 11:06:29;;;;;;;12.98;2.35;;;22.10;36.10;;;;;;5017264;28;20020;-60
2023/10/14 11:08:57;;;;;;;12.57;2.63;;;22.00;36.50;;;;;;5018702;28;20153;-60
2023/10/14 11:11:31;;;;;;;5.38;2.22;;;22.00;35.20;;;;;;5018648;28;20125;-61
2023/10/14 11:14:00;;;;;;;8.05;2.30;;;21.90;35.10;;;;;;5017843;28;20200;-63
2023/10/14 11:16:30;;;;;;;8.85;2.35;;;21.90;35.20;;;;;;5019776;28;20033;-60
2023/10/14 11:18:58;;;;;;;8.38;2.42;;;21.90;35.50;;;;;;5016019;28;20486;-59
2023/10/14 11:21:27;;;;;;;12.68;2.50;;;21.80;34.00;;;;;;5016521;28;20140;-59
2023/10/14 11:23:55;;;;;;;11.73;2.60;;;21.80;34.50;;;;;;5018371;28;20022;-60
2023/10/14 11:26:23;;;;;;;11.85;2.40;;;21.80;34.60;;;;;;5019023;28;20025;-60
2023/10/14 11:28:50;;;;;;;9.50;2.50;;;21.80;34.40;;;;;;5016423;28;20501;-60
2023/10/14 11:31:20;;;;;;;10.70;2.72;;;21.70;34.10;;;;;;5017977;28;20029;-60
2023/10/14 11:33:47;;;;;;;12.40;2.97;;;21.60;33.80;;;;;;5017997;28;20024;-59
2023/10/14 11:36:20;;;;;;;8.23;2.60;;;21.60;34.00;;;;;;5019157;28;20030;-61
2023/10/14 11:38:49;;;;;;;11.80;2.60;;;21.50;34.10;;;;;;5019058;28;20017;-60
2023/10/14 11:41:17;;;;;;;10.73;2.67;;;21.50;35.10;;;;;;5019068;28;20151;-60
2023/10/14 11:43:44;;;;;;;11.60;2.47;;;21.50;35.40;;;;;;5018408;28;20026;-60
2023/10/14 11:46:12;;;;;;;7.65;2.30;;;21.50;35.80;;;;;;5016433;28;20555;-60
2023/10/14 11:48:39;;;;;;;8.40;2.70;;;21.60;36.20;;;;;;5014751;28;20028;-59
2023/10/14 11:51:11;;;;;;;7.70;2.47;;;21.70;36.70;;;;;;5018891;28;20029;-60
2023/10/14 11:53:46;;;;;;;9.32;3.15;;;21.70;36.70;;;;;;5016421;28;20063;-59
2023/10/14 11:56:16;;;;;;;8.32;2.85;;;21.60;36.20;;;;;;5017894;28;20482;-61
2023/10/14 11:58:43;;;;;;;10.13;2.67;;;21.50;36.60;;;;;;5017045;28;20026;-60
2023/10/14 12:01:10;;;;;;;8.38;3.10;;;21.50;37.40;;;;;;5016991;28;20063;-61
2023/10/14 12:03:37;;;;;;;8.77;2.88;;;21.50;36.70;;;;;;5015811;28;20014;-60
2023/10/14 12:06:07;;;;;;;25.50;4.00;;;21.40;37.30;;;;;;5016650;28;20103;-62
2023/10/14 12:08:37;;;;;;;13.77;3.03;;;21.40;37.20;;;;;;5016955;28;20029;-60
2023/10/14 12:11:05;;;;;;;9.82;2.40;;;21.30;37.00;;;;;;5018171;28;20029;-58
2023/10/14 12:13:32;;;;;;;7.65;2.85;;;21.30;37.10;;;;;;5015526;28;20136;-60
2023/10/14 12:16:04;;;;;;;11.13;2.83;;;21.30;37.60;;;;;;5016369;28;20030;-61
2023/10/14 12:18:35;;;;;;;15.43;2.80;;;21.30;37.80;;;;;;5016886;28;20022;-60
2023/10/14 12:21:02;;;;;;;10.82;2.80;;;21.20;37.80;;;;;;5016090;28;20075;-63
2023/10/14 12:23:31;;;;;;;9.77;2.97;;;21.10;37.90;;;;;;5015233;28;20120;-60
2023/10/14 12:25:59;;;;;;;8.48;2.92;;;20.90;37.90;;;;;;5016995;28;20017;-60
2023/10/14 12:28:26;;;;;;;7.72;2.55;;;20.80;38.50;;;;;;5016522;28;20021;-60
2023/10/14 12:30:56;;;;;;;12.63;2.63;;;20.90;39.30;;;;;;5017917;28;20385;-61
2023/10/14 12:33:24;;;;;;;12.38;2.90;;;20.60;39.80;;;;;;5017990;28;20029;-60
2023/10/14 12:35:53;;;;;;;13.70;3.20;;;20.60;40.40;;;;;;5017309;28;20548;-60
2023/10/14 12:38:22;;;;;;;12.63;2.67;;;20.60;40.20;;;;;;5016596;28;20112;-60
2023/10/14 12:40:49;;;;;;;9.45;2.60;;;20.60;40.20;;;;;;5016148;28;20021;-60
2023/10/14 12:43:32;;;;;;;11.57;4.50;;;20.50;40.20;;;;;;5015935;28;20130;-60
2023/10/14 12:48:46;;;;;;;11.77;2.75;;;20.50;40.60;;;;;;5015541;28;20026;-60
2023/10/14 12:51:20;;;;;;;13.68;3.28;;;20.40;41.10;;;;;;5017317;28;20101;-58
2023/10/14 12:53:46;;;;;;;16.77;3.42;;;20.30;41.70;;;;;;5017456;28;20093;-60
2023/10/14 12:56:20;;;;;;;17.25;3.08;;;20.30;41.70;;;;;;5020691;28;20124;-62
2023/10/14 12:58:48;;;;;;;13.05;2.85;;;20.30;42.00;;;;;;5017224;28;20106;-62
2023/10/14 13:01:17;;;;;;;13.88;3.20;;;20.30;42.00;;;;;;5022678;28;20051;-61
2023/10/14 13:03:57;;;;;;;11.57;3.30;;;20.30;42.40;;;;;;5019826;28;20025;-59
2023/10/14 13:06:26;;;;;;;17.23;3.17;;;20.20;42.60;;;;;;5020694;28;20026;-57
2023/10/14 13:09:01;;;;;;;12.55;3.08;;;20.20;42.80;;;;;;5020575;28;20512;-60
2023/10/14 13:11:29;;;;;;;12.50;2.92;;;20.10;42.50;;;;;;5021595;28;20082;-61
2023/10/14 13:13:56;;;;;;;11.77;3.58;;;19.90;42.20;;;;;;5020239;28;20049;-59
2023/10/14 13:16:25;;;;;;;10.85;3.08;;;19.70;42.90;;;;;;5019197;28;20067;-57
2023/10/14 13:18:56;;;;;;;24.77;3.58;;;19.70;43.30;;;;;;5021299;28;20057;-60
2023/10/14 13:21:32;;;;;;;10.02;3.47;;;19.80;43.50;;;;;;5022839;28;20036;-60